KBIF/BIF METAR and TAF weather

Enter ICAO airport designator
Station Type Date Time Source
KBIF METAR 2022/01/29 04:58 UTC NOAA

KBIF 290458Z AUTO 35005KT 10SM BKN250 01/M10 A3045 RMK AO2 SLP313 T00051101 $


Station Type Date Time Source
KBIF Decoded METAR 2022/01/29 04:58 UTC NOAA

Biggs Army Air Field / Ft. Bliss, TX, United States (KBIF) 31-51N 106-23W
Jan 28, 2022 - 11:58 PM EST / 2022.01.29 0458 UTC
Wind: from the N (350 degrees) at 6 MPH (5 KT):0
Visibility: 10 mile(s):0
Sky conditions: mostly cloudy
Temperature: 32.9 F (0.5 C)
Windchill: 26 F (-3 C):1
Dew Point: 13.8 F (-10.1 C)
Relative Humidity: 44%
Pressure (altimeter): 30.45 in. Hg (1031 hPa)
ob: KBIF 290458Z AUTO 35005KT 10SM BKN250 01/M10 A3045 RMK AO2 SLP313 T00051101
cycle: 5

Station Type Date Time Source
KBIF TAF 2022/01/28 22:10 UTC NOAA

TAF KBIF 282207Z 2822/3004 VRB06KT 9999 SKC QNH3017INS TX14/2823Z TNM07/2914Z

Example: see airport list